sensor_id;sensor_type;location;lat;lon;timestamp;P1;durP1;ratioP1;P2;durP2;ratioP2
52106;SDS011;38105;52.968;5.974;2023-07-16T00:01:25;41.25;;;20.65;;
52106;SDS011;38105;52.968;5.974;2023-07-16T00:03:51;41.30;;;20.65;;
52106;SDS011;38105;52.968;5.974;2023-07-16T00:06:17;40.10;;;20.45;;
52106;SDS011;38105;52.968;5.974;2023-07-16T00:08:42;39.67;;;20.35;;
52106;SDS011;38105;52.968;5.974;2023-07-16T00:11:08;37.05;;;19.75;;
52106;SDS011;38105;52.968;5.974;2023-07-16T00:13:33;36.83;;;19.65;;
52106;SDS011;38105;52.968;5.974;2023-07-16T00:15:59;35.72;;;19.35;;
52106;SDS011;38105;52.968;5.974;2023-07-16T00:20:50;22.20;;;15.50;;
52106;SDS011;38105;52.968;5.974;2023-07-16T00:23:16;34.65;;;19.02;;
52106;SDS011;38105;52.968;5.974;2023-07-16T00:25:41;35.88;;;19.55;;
52106;SDS011;38105;52.968;5.974;2023-07-16T00:37:49;31.03;;;18.30;;
52106;SDS011;38105;52.968;5.974;2023-07-16T00:40:15;51.33;;;21.63;;
52106;SDS011;38105;52.968;5.974;2023-07-16T00:42:40;76.50;;;24.27;;
52106;SDS011;38105;52.968;5.974;2023-07-16T00:45:08;75.60;;;24.40;;
52106;SDS011;38105;52.968;5.974;2023-07-16T00:47:38;65.40;;;23.15;;
52106;SDS011;38105;52.968;5.974;2023-07-16T00:50:05;51.55;;;20.52;;
52106;SDS011;38105;52.968;5.974;2023-07-16T00:52:32;53.85;;;21.58;;
52106;SDS011;38105;52.968;5.974;2023-07-16T00:54:58;55.65;;;21.90;;
52106;SDS011;38105;52.968;5.974;2023-07-16T00:57:24;53.67;;;21.70;;
52106;SDS011;38105;52.968;5.974;2023-07-16T00:59:50;52.00;;;21.58;;
52106;SDS011;38105;52.968;5.974;2023-07-16T01:02:15;51.83;;;21.75;;
52106;SDS011;38105;52.968;5.974;2023-07-16T01:04:41;50.20;;;21.70;;
52106;SDS011;38105;52.968;5.974;2023-07-16T01:07:08;49.60;;;21.70;;
52106;SDS011;38105;52.968;5.974;2023-07-16T01:09:37;48.80;;;21.65;;
52106;SDS011;38105;52.968;5.974;2023-07-16T01:12:07;49.58;;;21.95;;
52106;SDS011;38105;52.968;5.974;2023-07-16T01:14:34;47.75;;;21.48;;
52106;SDS011;38105;52.968;5.974;2023-07-16T01:17:06;45.28;;;21.30;;
52106;SDS011;38105;52.968;5.974;2023-07-16T01:19:33;43.20;;;20.83;;
52106;SDS011;38105;52.968;5.974;2023-07-16T01:27:50;40.10;;;20.23;;
52106;SDS011;38105;52.968;5.974;2023-07-16T01:35:22;41.85;;;20.48;;
52106;SDS011;38105;52.968;5.974;2023-07-16T02:28:53;45.97;;;21.07;;
52106;SDS011;38105;52.968;5.974;2023-07-16T02:31:19;75.18;;;23.98;;
52106;SDS011;38105;52.968;5.974;2023-07-16T02:33:45;58.58;;;21.27;;
52106;SDS011;38105;52.968;5.974;2023-07-16T02:36:11;47.95;;;21.25;;
52106;SDS011;38105;52.968;5.974;2023-07-16T04:18:23;33.97;;;18.88;;
52106;SDS011;38105;52.968;5.974;2023-07-16T04:20:49;52.47;;;22.15;;
52106;SDS011;38105;52.968;5.974;2023-07-16T04:23:15;45.97;;;21.08;;
52106;SDS011;38105;52.968;5.974;2023-07-16T07:08:36;42.35;;;20.83;;
52106;SDS011;38105;52.968;5.974;2023-07-16T07:11:02;472.98;;;423.88;;
52106;SDS011;38105;52.968;5.974;2023-07-16T07:13:28;393.45;;;304.23;;
52106;SDS011;38105;52.968;5.974;2023-07-16T07:15:54;401.33;;;342.33;;
52106;SDS011;38105;52.968;5.974;2023-07-16T07:18:20;425.08;;;378.45;;
52106;SDS011;38105;52.968;5.974;2023-07-16T07:20:46;412.52;;;363.73;;
52106;SDS011;38105;52.968;5.974;2023-07-16T07:23:15;424.55;;;368.25;;
52106;SDS011;38105;52.968;5.974;2023-07-16T07:25:47;414.83;;;348.02;;
52106;SDS011;38105;52.968;5.974;2023-07-16T07:28:15;428.08;;;379.35;;
52106;SDS011;38105;52.968;5.974;2023-07-16T07:30:40;454.52;;;406.35;;
52106;SDS011;38105;52.968;5.974;2023-07-16T07:33:06;395.55;;;292.95;;
52106;SDS011;38105;52.968;5.974;2023-07-16T07:35:32;409.00;;;320.40;;
52106;SDS011;38105;52.968;5.974;2023-07-16T07:37:57;405.42;;;317.45;;
52106;SDS011;38105;52.968;5.974;2023-07-16T07:40:23;400.23;;;315.50;;
52106;SDS011;38105;52.968;5.974;2023-07-16T07:42:49;408.38;;;325.27;;
52106;SDS011;38105;52.968;5.974;2023-07-16T07:45:14;420.15;;;356.55;;
52106;SDS011;38105;52.968;5.974;2023-07-16T07:47:41;449.90;;;401.27;;
52106;SDS011;38105;52.968;5.974;2023-07-16T07:50:06;405.02;;;322.73;;
52106;SDS011;38105;52.968;5.974;2023-07-16T07:52:32;419.10;;;351.42;;
52106;SDS011;38105;52.968;5.974;2023-07-16T07:55:04;402.20;;;314.73;;
52106;SDS011;38105;52.968;5.974;2023-07-16T07:57:32;403.55;;;345.25;;
52106;SDS011;38105;52.968;5.974;2023-07-16T08:00:01;423.00;;;362.95;;
52106;SDS011;38105;52.968;5.974;2023-07-16T08:02:27;412.02;;;337.58;;
52106;SDS011;38105;52.968;5.974;2023-07-16T08:04:53;407.50;;;349.02;;
52106;SDS011;38105;52.968;5.974;2023-07-16T08:07:19;424.35;;;355.65;;
52106;SDS011;38105;52.968;5.974;2023-07-16T08:09:46;414.27;;;339.15;;
52106;SDS011;38105;52.968;5.974;2023-07-16T08:12:12;414.55;;;331.70;;
52106;SDS011;38105;52.968;5.974;2023-07-16T08:14:38;402.35;;;310.20;;
52106;SDS011;38105;52.968;5.974;2023-07-16T08:17:04;422.67;;;373.80;;
52106;SDS011;38105;52.968;5.974;2023-07-16T08:19:30;433.20;;;384.52;;
52106;SDS011;38105;52.968;5.974;2023-07-16T08:21:55;446.45;;;398.80;;
52106;SDS011;38105;52.968;5.974;2023-07-16T08:24:21;400.83;;;341.73;;
52106;SDS011;38105;52.968;5.974;2023-07-16T08:26:47;430.92;;;385.27;;
52106;SDS011;38105;52.968;5.974;2023-07-16T08:29:12;558.00;;;507.70;;
52106;SDS011;38105;52.968;5.974;2023-07-16T08:31:41;556.08;;;505.52;;
52106;SDS011;38105;52.968;5.974;2023-07-16T08:34:06;592.65;;;541.30;;
52106;SDS011;38105;52.968;5.974;2023-07-16T08:36:32;631.97;;;579.08;;
52106;SDS011;38105;52.968;5.974;2023-07-16T08:38:58;660.33;;;606.78;;
52106;SDS011;38105;52.968;5.974;2023-07-16T08:41:24;721.35;;;665.55;;
52106;SDS011;38105;52.968;5.974;2023-07-16T08:43:51;738.03;;;682.20;;
52106;SDS011;38105;52.968;5.974;2023-07-16T08:46:17;745.40;;;689.03;;
52106;SDS011;38105;52.968;5.974;2023-07-16T08:48:44;716.25;;;660.28;;
52106;SDS011;38105;52.968;5.974;2023-07-16T08:51:10;730.40;;;674.20;;
52106;SDS011;38105;52.968;5.974;2023-07-16T08:53:39;682.10;;;627.33;;
52106;SDS011;38105;52.968;5.974;2023-07-16T08:56:05;718.00;;;662.53;;
52106;SDS011;38105;52.968;5.974;2023-07-16T08:58:31;676.50;;;621.95;;
52106;SDS011;38105;52.968;5.974;2023-07-16T09:00:58;746.33;;;689.38;;
52106;SDS011;38105;52.968;5.974;2023-07-16T09:03:25;746.58;;;689.83;;
52106;SDS011;38105;52.968;5.974;2023-07-16T09:05:51;714.78;;;658.20;;
52106;SDS011;38105;52.968;5.974;2023-07-16T09:08:19;748.83;;;691.45;;
52106;SDS011;38105;52.968;5.974;2023-07-16T09:10:52;789.67;;;730.90;;
52106;SDS011;38105;52.968;5.974;2023-07-16T09:13:19;738.85;;;682.00;;
52106;SDS011;38105;52.968;5.974;2023-07-16T09:15:50;746.20;;;689.55;;
52106;SDS011;38105;52.968;5.974;2023-07-16T09:18:23;700.97;;;644.90;;
52106;SDS011;38105;52.968;5.974;2023-07-16T09:20:54;720.00;;;664.05;;
52106;SDS011;38105;52.968;5.974;2023-07-16T09:23:26;720.53;;;663.60;;
52106;SDS011;38105;52.968;5.974;2023-07-16T09:25:53;717.83;;;661.78;;
52106;SDS011;38105;52.968;5.974;2023-07-16T09:28:20;743.55;;;687.13;;
52106;SDS011;38105;52.968;5.974;2023-07-16T09:30:46;676.72;;;622.70;;
52106;SDS011;38105;52.968;5.974;2023-07-16T09:33:13;716.67;;;661.15;;
52106;SDS011;38105;52.968;5.974;2023-07-16T09:35:40;712.88;;;657.83;;
52106;SDS011;38105;52.968;5.974;2023-07-16T09:38:07;749.40;;;693.15;;
52106;SDS011;38105;52.968;5.974;2023-07-16T09:40:35;775.17;;;717.95;;
52106;SDS011;38105;52.968;5.974;2023-07-16T09:43:03;760.55;;;703.75;;
52106;SDS011;38105;52.968;5.974;2023-07-16T09:45:29;741.15;;;685.00;;
52106;SDS011;38105;52.968;5.974;2023-07-16T09:47:55;773.95;;;716.25;;
52106;SDS011;38105;52.968;5.974;2023-07-16T09:50:23;780.72;;;723.25;;
52106;SDS011;38105;52.968;5.974;2023-07-16T09:52:51;766.78;;;709.58;;
52106;SDS011;38105;52.968;5.974;2023-07-16T09:55:17;770.65;;;713.63;;
52106;SDS011;38105;52.968;5.974;2023-07-16T09:57:46;734.45;;;678.55;;
52106;SDS011;38105;52.968;5.974;2023-07-16T10:00:12;719.58;;;664.83;;
52106;SDS011;38105;52.968;5.974;2023-07-16T10:02:40;645.30;;;592.42;;
52106;SDS011;38105;52.968;5.974;2023-07-16T10:07:51;612.20;;;560.83;;
52106;SDS011;38105;52.968;5.974;2023-07-16T10:10:19;652.95;;;599.65;;
52106;SDS011;38105;52.968;5.974;2023-07-16T10:12:55;598.70;;;548.00;;
52106;SDS011;38105;52.968;5.974;2023-07-16T10:15:25;657.97;;;604.83;;
52106;SDS011;38105;52.968;5.974;2023-07-16T10:17:52;714.22;;;659.60;;
52106;SDS011;38105;52.968;5.974;2023-07-16T10:20:27;706.50;;;651.53;;
52106;SDS011;38105;52.968;5.974;2023-07-16T10:22:57;738.60;;;682.42;;
52106;SDS011;38105;52.968;5.974;2023-07-16T10:25:25;752.47;;;695.83;;
52106;SDS011;38105;52.968;5.974;2023-07-16T10:27:52;771.83;;;714.35;;
52106;SDS011;38105;52.968;5.974;2023-07-16T10:30:19;787.63;;;729.30;;
52106;SDS011;38105;52.968;5.974;2023-07-16T10:32:45;802.40;;;743.53;;
52106;SDS011;38105;52.968;5.974;2023-07-16T10:35:11;783.42;;;725.63;;
52106;SDS011;38105;52.968;5.974;2023-07-16T10:37:38;790.28;;;732.17;;
52106;SDS011;38105;52.968;5.974;2023-07-16T10:40:05;773.72;;;716.40;;
52106;SDS011;38105;52.968;5.974;2023-07-16T10:42:35;779.10;;;721.13;;
52106;SDS011;38105;52.968;5.974;2023-07-16T10:45:02;783.17;;;725.47;;
52106;SDS011;38105;52.968;5.974;2023-07-16T10:47:33;799.85;;;741.13;;
52106;SDS011;38105;52.968;5.974;2023-07-16T10:50:02;772.95;;;715.35;;
52106;SDS011;38105;52.968;5.974;2023-07-16T10:52:29;791.75;;;733.53;;
52106;SDS011;38105;52.968;5.974;2023-07-16T10:54:55;771.90;;;714.17;;
52106;SDS011;38105;52.968;5.974;2023-07-16T10:57:22;800.60;;;741.92;;
52106;SDS011;38105;52.968;5.974;2023-07-16T10:59:56;765.22;;;707.88;;
52106;SDS011;38105;52.968;5.974;2023-07-16T11:02:23;761.53;;;704.10;;
52106;SDS011;38105;52.968;5.974;2023-07-16T11:04:50;769.05;;;711.88;;
52106;SDS011;38105;52.968;5.974;2023-07-16T11:07:18;753.25;;;696.33;;
52106;SDS011;38105;52.968;5.974;2023-07-16T11:09:45;767.20;;;709.65;;
52106;SDS011;38105;52.968;5.974;2023-07-16T11:12:14;761.15;;;703.55;;
52106;SDS011;38105;52.968;5.974;2023-07-16T11:14:45;752.15;;;695.10;;
52106;SDS011;38105;52.968;5.974;2023-07-16T11:17:15;745.80;;;689.13;;
52106;SDS011;38105;52.968;5.974;2023-07-16T11:19:44;740.28;;;683.88;;
52106;SDS011;38105;52.968;5.974;2023-07-16T11:22:10;741.50;;;685.38;;
52106;SDS011;38105;52.968;5.974;2023-07-16T11:24:39;744.05;;;687.45;;
52106;SDS011;38105;52.968;5.974;2023-07-16T11:27:13;728.00;;;671.85;;
52106;SDS011;38105;52.968;5.974;2023-07-16T11:29:51;694.58;;;639.08;;
52106;SDS011;38105;52.968;5.974;2023-07-16T11:32:36;732.67;;;676.38;;
52106;SDS011;38105;52.968;5.974;2023-07-16T11:35:04;721.63;;;665.67;;
52106;SDS011;38105;52.968;5.974;2023-07-16T11:37:32;688.17;;;633.08;;
52106;SDS011;38105;52.968;5.974;2023-07-16T11:40:02;716.05;;;660.15;;
52106;SDS011;38105;52.968;5.974;2023-07-16T11:42:36;726.55;;;670.38;;
52106;SDS011;38105;52.968;5.974;2023-07-16T11:45:04;722.25;;;665.58;;
52106;SDS011;38105;52.968;5.974;2023-07-16T11:47:30;733.72;;;677.22;;
52106;SDS011;38105;52.968;5.974;2023-07-16T11:49:56;703.33;;;647.30;;
52106;SDS011;38105;52.968;5.974;2023-07-16T11:52:26;724.65;;;668.45;;
52106;SDS011;38105;52.968;5.974;2023-07-16T11:54:54;731.78;;;675.45;;
52106;SDS011;38105;52.968;5.974;2023-07-16T11:57:22;733.75;;;676.70;;
52106;SDS011;38105;52.968;5.974;2023-07-16T11:59:48;728.22;;;672.10;;
52106;SDS011;38105;52.968;5.974;2023-07-16T12:02:16;733.17;;;677.10;;
52106;SDS011;38105;52.968;5.974;2023-07-16T12:04:41;736.05;;;679.60;;
52106;SDS011;38105;52.968;5.974;2023-07-16T12:07:07;752.75;;;695.92;;
52106;SDS011;38105;52.968;5.974;2023-07-16T12:09:33;734.20;;;677.90;;
52106;SDS011;38105;52.968;5.974;2023-07-16T12:11:59;735.20;;;678.45;;
52106;SDS011;38105;52.968;5.974;2023-07-16T12:14:25;741.45;;;685.03;;
52106;SDS011;38105;52.968;5.974;2023-07-16T12:16:51;752.47;;;696.03;;
52106;SDS011;38105;52.968;5.974;2023-07-16T12:19:16;752.80;;;695.90;;
52106;SDS011;38105;52.968;5.974;2023-07-16T12:21:42;725.03;;;669.15;;
52106;SDS011;38105;52.968;5.974;2023-07-16T12:24:08;747.67;;;691.28;;
52106;SDS011;38105;52.968;5.974;2023-07-16T12:26:34;753.45;;;696.58;;
52106;SDS011;38105;52.968;5.974;2023-07-16T12:29:00;754.42;;;697.45;;
52106;SDS011;38105;52.968;5.974;2023-07-16T12:31:30;764.92;;;707.65;;
52106;SDS011;38105;52.968;5.974;2023-07-16T12:33:57;752.60;;;695.78;;
52106;SDS011;38105;52.968;5.974;2023-07-16T12:36:23;760.88;;;703.80;;
52106;SDS011;38105;52.968;5.974;2023-07-16T12:38:49;746.63;;;689.72;;
52106;SDS011;38105;52.968;5.974;2023-07-16T12:41:14;768.03;;;710.67;;
52106;SDS011;38105;52.968;5.974;2023-07-16T12:43:41;733.90;;;677.50;;
52106;SDS011;38105;52.968;5.974;2023-07-16T12:46:07;766.40;;;709.20;;
52106;SDS011;38105;52.968;5.974;2023-07-16T12:48:33;738.58;;;682.05;;
52106;SDS011;38105;52.968;5.974;2023-07-16T12:50:59;748.20;;;691.28;;
52106;SDS011;38105;52.968;5.974;2023-07-16T12:53:25;751.90;;;694.58;;
52106;SDS011;38105;52.968;5.974;2023-07-16T12:55:51;783.88;;;725.67;;
52106;SDS011;38105;52.968;5.974;2023-07-16T12:58:17;763.97;;;707.05;;
52106;SDS011;38105;52.968;5.974;2023-07-16T13:00:43;751.70;;;695.15;;
52106;SDS011;38105;52.968;5.974;2023-07-16T13:03:08;765.38;;;708.42;;
52106;SDS011;38105;52.968;5.974;2023-07-16T13:05:39;785.35;;;727.55;;
52106;SDS011;38105;52.968;5.974;2023-07-16T13:08:05;758.35;;;701.72;;
52106;SDS011;38105;52.968;5.974;2023-07-16T13:10:31;757.15;;;700.17;;
52106;SDS011;38105;52.968;5.974;2023-07-16T13:12:57;728.08;;;672.25;;
52106;SDS011;38105;52.968;5.974;2023-07-16T13:15:23;744.50;;;688.47;;
52106;SDS011;38105;52.968;5.974;2023-07-16T13:17:49;754.90;;;698.30;;
52106;SDS011;38105;52.968;5.974;2023-07-16T13:20:14;732.35;;;676.63;;
52106;SDS011;38105;52.968;5.974;2023-07-16T13:22:43;703.97;;;648.42;;
52106;SDS011;38105;52.968;5.974;2023-07-16T13:25:12;731.58;;;675.03;;
52106;SDS011;38105;52.968;5.974;2023-07-16T13:27:37;742.65;;;686.58;;
52106;SDS011;38105;52.968;5.974;2023-07-16T13:30:04;754.63;;;698.17;;
52106;SDS011;38105;52.968;5.974;2023-07-16T13:32:31;691.88;;;638.63;;
52106;SDS011;38105;52.968;5.974;2023-07-16T13:34:56;687.13;;;633.60;;
52106;SDS011;38105;52.968;5.974;2023-07-16T13:37:22;709.13;;;654.85;;
52106;SDS011;38105;52.968;5.974;2023-07-16T13:39:47;663.45;;;610.90;;
52106;SDS011;38105;52.968;5.974;2023-07-16T13:42:13;579.70;;;529.47;;
52106;SDS011;38105;52.968;5.974;2023-07-16T13:44:39;360.77;;;238.55;;
52106;SDS011;38105;52.968;5.974;2023-07-16T13:47:04;338.52;;;211.57;;
52106;SDS011;38105;52.968;5.974;2023-07-16T13:49:30;357.02;;;241.05;;
52106;SDS011;38105;52.968;5.974;2023-07-16T13:51:56;347.80;;;212.60;;
52106;SDS011;38105;52.968;5.974;2023-07-16T13:54:22;354.50;;;232.20;;
52106;SDS011;38105;52.968;5.974;2023-07-16T13:56:48;360.48;;;209.75;;
52106;SDS011;38105;52.968;5.974;2023-07-16T13:59:14;364.02;;;262.13;;
52106;SDS011;38105;52.968;5.974;2023-07-16T14:01:40;377.65;;;272.05;;
52106;SDS011;38105;52.968;5.974;2023-07-16T14:04:06;378.55;;;272.17;;
52106;SDS011;38105;52.968;5.974;2023-07-16T14:06:32;373.27;;;275.42;;
52106;SDS011;38105;52.968;5.974;2023-07-16T14:08:58;383.48;;;308.48;;
52106;SDS011;38105;52.968;5.974;2023-07-16T14:11:24;380.77;;;311.70;;
52106;SDS011;38105;52.968;5.974;2023-07-16T14:13:50;386.63;;;322.23;;
52106;SDS011;38105;52.968;5.974;2023-07-16T14:16:20;376.98;;;275.30;;
52106;SDS011;38105;52.968;5.974;2023-07-16T14:18:49;362.38;;;254.40;;
52106;SDS011;38105;52.968;5.974;2023-07-16T14:21:16;380.95;;;268.70;;
52106;SDS011;38105;52.968;5.974;2023-07-16T14:23:42;362.17;;;237.63;;
52106;SDS011;38105;52.968;5.974;2023-07-16T14:26:08;365.30;;;247.13;;
52106;SDS011;38105;52.968;5.974;2023-07-16T14:28:34;369.33;;;247.20;;
52106;SDS011;38105;52.968;5.974;2023-07-16T14:30:59;366.42;;;231.82;;
52106;SDS011;38105;52.968;5.974;2023-07-16T14:33:25;355.98;;;196.68;;
52106;SDS011;38105;52.968;5.974;2023-07-16T14:35:51;343.30;;;175.70;;
52106;SDS011;38105;52.968;5.974;2023-07-16T14:38:16;356.05;;;203.07;;
52106;SDS011;38105;52.968;5.974;2023-07-16T14:40:42;242.50;;;132.90;;
52106;SDS011;38105;52.968;5.974;2023-07-16T14:43:07;360.52;;;225.30;;
52106;SDS011;38105;52.968;5.974;2023-07-16T14:45:34;366.25;;;235.05;;
52106;SDS011;38105;52.968;5.974;2023-07-16T14:48:00;369.23;;;239.00;;
52106;SDS011;38105;52.968;5.974;2023-07-16T14:50:26;360.73;;;230.63;;
52106;SDS011;38105;52.968;5.974;2023-07-16T14:52:51;376.50;;;239.75;;
52106;SDS011;38105;52.968;5.974;2023-07-16T14:55:18;363.23;;;224.85;;
52106;SDS011;38105;52.968;5.974;2023-07-16T14:57:44;262.23;;;165.75;;
52106;SDS011;38105;52.968;5.974;2023-07-16T15:00:09;369.60;;;258.23;;
52106;SDS011;38105;52.968;5.974;2023-07-16T15:02:36;355.15;;;207.95;;
52106;SDS011;38105;52.968;5.974;2023-07-16T15:05:03;334.73;;;150.85;;
52106;SDS011;38105;52.968;5.974;2023-07-16T15:07:32;350.58;;;160.63;;
52106;SDS011;38105;52.968;5.974;2023-07-16T15:09:59;242.73;;;119.57;;
52106;SDS011;38105;52.968;5.974;2023-07-16T15:12:28;236.25;;;108.85;;
52106;SDS011;38105;52.968;5.974;2023-07-16T15:14:54;238.73;;;114.20;;
52106;SDS011;38105;52.968;5.974;2023-07-16T15:17:19;236.70;;;103.32;;
52106;SDS011;38105;52.968;5.974;2023-07-16T15:19:47;239.48;;;106.90;;
52106;SDS011;38105;52.968;5.974;2023-07-16T15:22:14;333.15;;;150.25;;
52106;SDS011;38105;52.968;5.974;2023-07-16T15:24:43;329.02;;;121.63;;
52106;SDS011;38105;52.968;5.974;2023-07-16T15:27:09;228.70;;;83.35;;
52106;SDS011;38105;52.968;5.974;2023-07-16T15:29:35;225.98;;;83.93;;
52106;SDS011;38105;52.968;5.974;2023-07-16T15:32:00;225.10;;;77.28;;
52106;SDS011;38105;52.968;5.974;2023-07-16T15:34:26;322.05;;;115.90;;
52106;SDS011;38105;52.968;5.974;2023-07-16T15:36:52;318.02;;;111.60;;
52106;SDS011;38105;52.968;5.974;2023-07-16T15:39:17;316.98;;;108.18;;
52106;SDS011;38105;52.968;5.974;2023-07-16T15:41:44;126.68;;;42.40;;
52106;SDS011;38105;52.968;5.974;2023-07-16T15:44:10;221.40;;;69.22;;
52106;SDS011;38105;52.968;5.974;2023-07-16T15:46:36;321.45;;;106.38;;
52106;SDS011;38105;52.968;5.974;2023-07-16T15:49:04;228.38;;;79.57;;
52106;SDS011;38105;52.968;5.974;2023-07-16T15:51:30;324.65;;;112.70;;
52106;SDS011;38105;52.968;5.974;2023-07-16T15:53:55;220.85;;;70.70;;
52106;SDS011;38105;52.968;5.974;2023-07-16T15:56:22;325.08;;;109.25;;
52106;SDS011;38105;52.968;5.974;2023-07-16T15:58:48;228.50;;;77.32;;
52106;SDS011;38105;52.968;5.974;2023-07-16T16:01:14;130.18;;;43.05;;
52106;SDS011;38105;52.968;5.974;2023-07-16T16:03:39;319.85;;;108.63;;
52106;SDS011;38105;52.968;5.974;2023-07-16T16:06:05;321.55;;;114.75;;
52106;SDS011;38105;52.968;5.974;2023-07-16T16:08:31;324.00;;;111.00;;
52106;SDS011;38105;52.968;5.974;2023-07-16T16:10:59;316.65;;;108.95;;
52106;SDS011;38105;52.968;5.974;2023-07-16T16:13:25;225.43;;;78.70;;
52106;SDS011;38105;52.968;5.974;2023-07-16T16:15:51;223.90;;;76.45;;
52106;SDS011;38105;52.968;5.974;2023-07-16T16:18:17;321.75;;;112.55;;
52106;SDS011;38105;52.968;5.974;2023-07-16T16:20:44;320.10;;;109.07;;
52106;SDS011;38105;52.968;5.974;2023-07-16T16:23:11;319.77;;;109.68;;
52106;SDS011;38105;52.968;5.974;2023-07-16T16:25:37;319.13;;;104.57;;
52106;SDS011;38105;52.968;5.974;2023-07-16T16:28:03;319.73;;;112.15;;
52106;SDS011;38105;52.968;5.974;2023-07-16T16:30:30;128.18;;;43.38;;
52106;SDS011;38105;52.968;5.974;2023-07-16T16:32:58;222.85;;;71.22;;
52106;SDS011;38105;52.968;5.974;2023-07-16T16:35:25;324.10;;;108.72;;
52106;SDS011;38105;52.968;5.974;2023-07-16T16:37:51;319.52;;;108.25;;
52106;SDS011;38105;52.968;5.974;2023-07-16T16:40:17;324.00;;;109.50;;
52106;SDS011;38105;52.968;5.974;2023-07-16T16:42:44;226.43;;;80.43;;
52106;SDS011;38105;52.968;5.974;2023-07-16T16:45:10;320.95;;;106.38;;
52106;SDS011;38105;52.968;5.974;2023-07-16T16:47:37;316.83;;;103.25;;
52106;SDS011;38105;52.968;5.974;2023-07-16T16:50:03;322.90;;;111.70;;
52106;SDS011;38105;52.968;5.974;2023-07-16T16:52:32;224.05;;;76.45;;
52106;SDS011;38105;52.968;5.974;2023-07-16T16:54:59;131.85;;;42.53;;
52106;SDS011;38105;52.968;5.974;2023-07-16T16:57:25;318.92;;;105.22;;
52106;SDS011;38105;52.968;5.974;2023-07-16T16:59:52;317.25;;;104.45;;
52106;SDS011;38105;52.968;5.974;2023-07-16T17:02:19;317.63;;;106.30;;
52106;SDS011;38105;52.968;5.974;2023-07-16T17:04:45;223.15;;;77.15;;
52106;SDS011;38105;52.968;5.974;2023-07-16T17:07:10;321.00;;;102.32;;
52106;SDS011;38105;52.968;5.974;2023-07-16T17:09:36;320.67;;;104.90;;
52106;SDS011;38105;52.968;5.974;2023-07-16T17:12:03;224.77;;;75.22;;
52106;SDS011;38105;52.968;5.974;2023-07-16T17:14:29;129.15;;;40.72;;
52106;SDS011;38105;52.968;5.974;2023-07-16T17:16:56;322.00;;;105.95;;
52106;SDS011;38105;52.968;5.974;2023-07-16T17:19:22;320.20;;;100.85;;
52106;SDS011;38105;52.968;5.974;2023-07-16T17:21:48;317.38;;;100.00;;
52106;SDS011;38105;52.968;5.974;2023-07-16T17:24:14;224.02;;;71.70;;
52106;SDS011;38105;52.968;5.974;2023-07-16T17:26:40;319.05;;;98.63;;
52106;SDS011;38105;52.968;5.974;2023-07-16T17:29:06;127.15;;;38.78;;
52106;SDS011;38105;52.968;5.974;2023-07-16T17:31:35;323.33;;;106.85;;
52106;SDS011;38105;52.968;5.974;2023-07-16T17:34:01;131.27;;;42.58;;
52106;SDS011;38105;52.968;5.974;2023-07-16T17:36:27;323.83;;;105.18;;
52106;SDS011;38105;52.968;5.974;2023-07-16T17:38:54;321.27;;;107.97;;
52106;SDS011;38105;52.968;5.974;2023-07-16T17:41:20;316.40;;;98.15;;
52106;SDS011;38105;52.968;5.974;2023-07-16T17:43:46;129.88;;;41.70;;
52106;SDS011;38105;52.968;5.974;2023-07-16T17:46:12;320.05;;;100.90;;
52106;SDS011;38105;52.968;5.974;2023-07-16T17:48:37;326.88;;;104.82;;
52106;SDS011;38105;52.968;5.974;2023-07-16T17:51:03;320.25;;;99.50;;
52106;SDS011;38105;52.968;5.974;2023-07-16T17:53:29;230.25;;;69.68;;
52106;SDS011;38105;52.968;5.974;2023-07-16T17:55:55;130.82;;;40.92;;
52106;SDS011;38105;52.968;5.974;2023-07-16T17:58:22;317.50;;;96.30;;
52106;SDS011;38105;52.968;5.974;2023-07-16T18:00:47;318.27;;;96.10;;
52106;SDS011;38105;52.968;5.974;2023-07-16T18:03:13;320.58;;;96.00;;
52106;SDS011;38105;52.968;5.974;2023-07-16T18:05:42;137.98;;;40.60;;
52106;SDS011;38105;52.968;5.974;2023-07-16T18:08:07;129.65;;;39.00;;
52106;SDS011;38105;52.968;5.974;2023-07-16T18:10:33;220.38;;;68.78;;
52106;SDS011;38105;52.968;5.974;2023-07-16T18:12:59;324.30;;;101.82;;
52106;SDS011;38105;52.968;5.974;2023-07-16T18:15:25;226.93;;;69.65;;
52106;SDS011;38105;52.968;5.974;2023-07-16T18:17:51;318.70;;;97.28;;
52106;SDS011;38105;52.968;5.974;2023-07-16T18:20:16;317.58;;;93.63;;
52106;SDS011;38105;52.968;5.974;2023-07-16T18:22:44;129.75;;;38.58;;
52106;SDS011;38105;52.968;5.974;2023-07-16T18:25:10;318.92;;;95.53;;
52106;SDS011;38105;52.968;5.974;2023-07-16T18:27:35;319.65;;;94.47;;
52106;SDS011;38105;52.968;5.974;2023-07-16T18:30:02;313.92;;;93.32;;
52106;SDS011;38105;52.968;5.974;2023-07-16T18:32:33;310.88;;;90.00;;
52106;SDS011;38105;52.968;5.974;2023-07-16T18:35:01;312.38;;;89.22;;
52106;SDS011;38105;52.968;5.974;2023-07-16T18:37:28;312.60;;;94.35;;
52106;SDS011;38105;52.968;5.974;2023-07-16T18:39:54;311.25;;;89.10;;
52106;SDS011;38105;52.968;5.974;2023-07-16T18:42:21;313.27;;;90.38;;
52106;SDS011;38105;52.968;5.974;2023-07-16T18:44:51;312.98;;;90.90;;
52106;SDS011;38105;52.968;5.974;2023-07-16T18:47:28;315.65;;;93.97;;
52106;SDS011;38105;52.968;5.974;2023-07-16T18:49:54;116.80;;;34.80;;
52106;SDS011;38105;52.968;5.974;2023-07-16T18:52:23;312.98;;;85.78;;
52106;SDS011;38105;52.968;5.974;2023-07-16T18:54:49;128.52;;;36.97;;
52106;SDS011;38105;52.968;5.974;2023-07-16T18:57:15;313.27;;;89.43;;
52106;SDS011;38105;52.968;5.974;2023-07-16T18:59:41;34.25;;;10.80;;
52106;SDS011;38105;52.968;5.974;2023-07-16T19:02:06;311.77;;;88.00;;
52106;SDS011;38105;52.968;5.974;2023-07-16T19:04:33;310.40;;;86.30;;
52106;SDS011;38105;52.968;5.974;2023-07-16T19:06:59;41.42;;;12.32;;
52106;SDS011;38105;52.968;5.974;2023-07-16T19:09:25;309.02;;;84.20;;
52106;SDS011;38105;52.968;5.974;2023-07-16T19:11:51;308.83;;;84.93;;
52106;SDS011;38105;52.968;5.974;2023-07-16T19:14:17;310.38;;;86.93;;
52106;SDS011;38105;52.968;5.974;2023-07-16T19:16:43;313.27;;;90.05;;
52106;SDS011;38105;52.968;5.974;2023-07-16T19:19:08;312.13;;;89.60;;
52106;SDS011;38105;52.968;5.974;2023-07-16T19:21:34;4.70;;;3.88;;
52106;SDS011;38105;52.968;5.974;2023-07-16T19:24:00;34.40;;;10.65;;
52106;SDS011;38105;52.968;5.974;2023-07-16T19:26:26;310.38;;;87.07;;
52106;SDS011;38105;52.968;5.974;2023-07-16T19:28:54;310.75;;;83.50;;
52106;SDS011;38105;52.968;5.974;2023-07-16T19:31:20;314.02;;;92.43;;
52106;SDS011;38105;52.968;5.974;2023-07-16T19:33:46;309.77;;;85.75;;
52106;SDS011;38105;52.968;5.974;2023-07-16T19:36:11;4.78;;;3.90;;
52106;SDS011;38105;52.968;5.974;2023-07-16T19:38:39;5.13;;;4.25;;